Navios Pollux — 3FPO2 — position and weather

sailwx.info

Track history (hours):
 
Tides and Currents Weather Stations Pressure Air Temp Water Temp Dewpoint Dewpoint Depression Visibility Wind Speed Wind Dir Waves Ship Positions

Navios Pollux

Last reported at 2015-Jul-28 17:32 UTC. Time now 2015-Jul-28 17:42 UTC.
Position N 44°35' E 037°55'.

Length 292 m; draft 18.4 m.

Type: Cargo ship. MMSI: 370290000.

Date/timePositionNaut miles runAvg speedWind from/ knotsBaromVisibWave heightAir tempDewpointWater temp
2015-Jul-28 17:32N 44°35' E 037°55'0 0.0
2015-Jul-28 16:32N 44°35' E 037°55'0 0.0
2015-Jul-28 15:32N 44°35' E 037°55'0 0.0
2015-Jul-28 14:29N 44°35' E 037°55'0 0.0
2015-Jul-28 13:32N 44°35' E 037°55'0 0.0
2015-Jul-28 12:32N 44°35' E 037°55'0 0.0
2015-Jul-28 11:32N 44°35' E 037°55'0 0.3
2015-Jul-28 10:33N 44°35' E 037°55'3 3.3
2015-Jul-28 09:33N 44°33' E 037°51'5 5.0
2015-Jul-28 08:33N 44°30' E 037°45'9 9.0
2015-Jul-28 07:33N 44°26' E 037°34'9 9.1
2015-Jul-28 06:33N 44°22' E 037°23'9 9.0
2015-Jul-28 05:33N 44°17' E 037°12'62 8.4
2015-Jul-27 22:12N 44°12' E 035°46'6 8.9
2015-Jul-27 21:33N 44°13' E 035°38'9 9.0
2015-Jul-27 20:33N 44°13' E 035°25'9 8.9
2015-Jul-27 19:33N 44°14' E 035°13'9 9.1
2015-Jul-27 18:33N 44°15' E 035°00'9 9.1
2015-Jul-27 17:33N 44°15' E 034°48'9 9.1
2015-Jul-27 16:33N 44°15' E 034°35'9 8.9
2015-Jul-27 15:33N 44°15' E 034°22'9 8.8
2015-Jul-27 14:33N 44°15' E 034°10'9 8.7
2015-Jul-27 13:33N 44°15' E 033°58'9 8.7
2015-Jul-27 12:33N 44°15' E 033°46'43 8.6
2015-Jul-27 07:32N 44°40' E 032°57'9 9.3
2015-Jul-27 06:33N 44°46' E 032°48'12 9.3
2015-Jul-27 05:15N 44°56' E 032°37'10 9.2
2015-Jul-27 04:09N 45°03' E 032°28'5 9.0
2015-Jul-27 03:33N 45°07' E 032°22'10 9.1
2015-Jul-27 02:27N 45°14' E 032°13'8 9.0
2015-Jul-27 01:33N 45°20' E 032°05'9 8.9
2015-Jul-27 00:33N 45°27' E 031°57'9 9.0
2015-Jul-26 23:33N 45°34' E 031°48'9 9.0
2015-Jul-26 22:33N 45°38' E 031°37'9 9.2
2015-Jul-26 21:33N 45°42' E 031°26'8 8.4
2015-Jul-26 20:33N 45°47' E 031°16'9 8.9
2015-Jul-26 19:31N 45°56' E 031°12'8 8.6
2015-Jul-26 18:33N 46°04' E 031°09'8 8.3
2015-Jul-26 17:33N 46°10' E 031°01'8 8.0
2015-Jul-26 16:33N 46°17' E 030°54'8 8.3
2015-Jul-26 15:33N 46°25' E 030°55'8 7.1
2015-Jul-26 14:27N 46°33' E 030°57'5 0.2
2015-Jul-25 05:30N 46°37' E 031°02'0 0.0
2015-Jul-25 04:30N 46°37' E 031°02'0 0.0
2015-Jul-25 03:30N 46°37' E 031°02'0 0.0
2015-Jul-25 02:21N 46°37' E 031°02'1 1.0
2015-Jul-25 01:33N 46°38' E 031°01'1 0.1
2015-Jul-24 05:11N 46°39' E 031°01'0 0.0
2015-Jul-24 04:32N 46°39' E 031°01'0 0.0
2015-Jul-24 03:32N 46°39' E 031°01'0 0.0
2015-Jul-24 02:32N 46°39' E 031°01'0 0.0
2015-Jul-24 01:32N 46°39' E 031°01'0 0.0
2015-Jul-24 00:29N 46°39' E 031°01'0 0.0
2015-Jul-23 23:32N 46°39' E 031°01'0 0.0
2015-Jul-23 22:32N 46°39' E 031°01'0 0.0
2015-Jul-23 21:32N 46°39' E 031°01'0 0.0
2015-Jul-23 20:32N 46°39' E 031°01'0 0.0
2015-Jul-23 19:32N 46°39' E 031°01'0 0.0
2015-Jul-23 18:32N 46°39' E 031°01'0 0.0
2015-Jul-23 17:32N 46°39' E 031°01'0 0.0
2015-Jul-23 04:05N 46°39' E 031°01'0 0.0
2015-Jul-23 03:17N 46°39' E 031°01'0 0.0
2015-Jul-23 02:29N 46°39' E 031°01'0 0.0
2015-Jul-23 01:29N 46°39' E 031°01'0 0.0
2015-Jul-23 00:32N 46°39' E 031°01'0 0.0
2015-Jul-22 23:32N 46°39' E 031°01'0 0.0
2015-Jul-22 22:32N 46°39' E 031°01'0 0.0
2015-Jul-22 21:32N 46°39' E 031°01'0 0.0
2015-Jul-22 20:26N 46°39' E 031°01'0 0.0
2015-Jul-22 19:32N 46°39' E 031°01'0 0.0
2015-Jul-22 18:29N 46°39' E 031°01'0 0.0
2015-Jul-22 17:32N 46°39' E 031°01'3 3.3
2015-Jul-22 16:33N 46°36' E 031°01'4 3.9
2015-Jul-22 15:33N 46°34' E 031°06'2 0.2
2015-Jul-22 04:22N 46°34' E 031°09'0 0.0
2015-Jul-22 00:31N 46°34' E 031°09'0 0.0
2015-Jul-21 23:31N 46°34' E 031°09'0 0.0
2015-Jul-21 22:10N 46°34' E 031°09'0 0.0
2015-Jul-21 21:31N 46°34' E 031°09'0 0.0
2015-Jul-21 03:28N 46°34' E 031°09'0 0.1
2015-Jul-21 00:31N 46°34' E 031°09'0 0.0
2015-Jul-20 23:31N 46°34' E 031°09'0 0.0
2015-Jul-20 20:10N 46°34' E 031°09'0 0.0
2015-Jul-20 19:31N 46°34' E 031°09'0 0.0
2015-Jul-20 18:31N 46°34' E 031°09'0 0.0
2015-Jul-20 17:31N 46°34' E 031°09'0 0.0
2015-Jul-20 04:28N 46°34' E 031°09'0 0.0
2015-Jul-20 03:31N 46°34' E 031°09'0 0.0
2015-Jul-20 02:31N 46°34' E 031°09'0 0.0
2015-Jul-20 01:31N 46°34' E 031°09'0 0.0
2015-Jul-20 00:31N 46°34' E 031°09'0 0.0
2015-Jul-19 23:31N 46°34' E 031°09'0 0.0
2015-Jul-19 22:31N 46°34' E 031°09'0 0.0
2015-Jul-19 21:31N 46°34' E 031°09'0 0.0
2015-Jul-19 20:31N 46°34' E 031°09'0 0.0
2015-Jul-19 19:31N 46°34' E 031°09'0 0.0
2015-Jul-19 18:31N 46°34' E 031°09'0 0.0
2015-Jul-19 17:31N 46°34' E 031°09'0 0.0
2015-Jul-18 22:20N 46°34' E 031°08'3 4.2
2015-Jul-18 21:33N 46°34' E 031°03'  
Track history (hours):
 
Tides and Currents Weather Stations Pressure Air Temp Water Temp Dewpoint Dewpoint Depression Visibility Wind Speed Wind Dir Waves Ship Positions

Navios Pollux

Last reported at 2015-Jul-28 17:32 UTC. Time now 2015-Jul-28 17:42 UTC.
Position N 44°35' E 037°55'.

Length 292 m; draft 18.4 m.

Type: Cargo ship. MMSI: 370290000.

Date/timePositionNaut miles runAvg speedWind from/ knotsBaromVisibWave heightAir tempDewpointWater temp
2015-Jul-28 17:32N 44°35' E 037°55'0 0.0
2015-Jul-28 16:32N 44°35' E 037°55'0 0.0
2015-Jul-28 15:32N 44°35' E 037°55'0 0.0
2015-Jul-28 14:29N 44°35' E 037°55'0 0.0
2015-Jul-28 13:32N 44°35' E 037°55'0 0.0
2015-Jul-28 12:32N 44°35' E 037°55'0 0.0
2015-Jul-28 11:32N 44°35' E 037°55'0 0.3
2015-Jul-28 10:33N 44°35' E 037°55'3 3.3
2015-Jul-28 09:33N 44°33' E 037°51'5 5.0
2015-Jul-28 08:33N 44°30' E 037°45'9 9.0
2015-Jul-28 07:33N 44°26' E 037°34'9 9.1
2015-Jul-28 06:33N 44°22' E 037°23'9 9.0
2015-Jul-28 05:33N 44°17' E 037°12'62 8.4
2015-Jul-27 22:12N 44°12' E 035°46'6 8.9
2015-Jul-27 21:33N 44°13' E 035°38'9 9.0
2015-Jul-27 20:33N 44°13' E 035°25'9 8.9
2015-Jul-27 19:33N 44°14' E 035°13'9 9.1
2015-Jul-27 18:33N 44°15' E 035°00'9 9.1
2015-Jul-27 17:33N 44°15' E 034°48'9 9.1
2015-Jul-27 16:33N 44°15' E 034°35'9 8.9
2015-Jul-27 15:33N 44°15' E 034°22'9 8.8
2015-Jul-27 14:33N 44°15' E 034°10'9 8.7
2015-Jul-27 13:33N 44°15' E 033°58'9 8.7
2015-Jul-27 12:33N 44°15' E 033°46'43 8.6
2015-Jul-27 07:32N 44°40' E 032°57'9 9.3
2015-Jul-27 06:33N 44°46' E 032°48'12 9.3
2015-Jul-27 05:15N 44°56' E 032°37'10 9.2
2015-Jul-27 04:09N 45°03' E 032°28'5 9.0
2015-Jul-27 03:33N 45°07' E 032°22'10 9.1
2015-Jul-27 02:27N 45°14' E 032°13'8 9.0
2015-Jul-27 01:33N 45°20' E 032°05'9 8.9
2015-Jul-27 00:33N 45°27' E 031°57'9 9.0
2015-Jul-26 23:33N 45°34' E 031°48'9 9.0
2015-Jul-26 22:33N 45°38' E 031°37'9 9.2
2015-Jul-26 21:33N 45°42' E 031°26'8 8.4
2015-Jul-26 20:33N 45°47' E 031°16'9 8.9
2015-Jul-26 19:31N 45°56' E 031°12'8 8.6
2015-Jul-26 18:33N 46°04' E 031°09'8 8.3
2015-Jul-26 17:33N 46°10' E 031°01'8 8.0
2015-Jul-26 16:33N 46°17' E 030°54'8 8.3
2015-Jul-26 15:33N 46°25' E 030°55'8 7.1
2015-Jul-26 14:27N 46°33' E 030°57'5 0.2
2015-Jul-25 05:30N 46°37' E 031°02'0 0.0
2015-Jul-25 04:30N 46°37' E 031°02'0 0.0
2015-Jul-25 03:30N 46°37' E 031°02'0 0.0
2015-Jul-25 02:21N 46°37' E 031°02'1 1.0
2015-Jul-25 01:33N 46°38' E 031°01'1 0.1
2015-Jul-24 05:11N 46°39' E 031°01'0 0.0
2015-Jul-24 04:32N 46°39' E 031°01'0 0.0
2015-Jul-24 03:32N 46°39' E 031°01'0 0.0
2015-Jul-24 02:32N 46°39' E 031°01'0 0.0
2015-Jul-24 01:32N 46°39' E 031°01'0 0.0
2015-Jul-24 00:29N 46°39' E 031°01'0 0.0
2015-Jul-23 23:32N 46°39' E 031°01'0 0.0
2015-Jul-23 22:32N 46°39' E 031°01'0 0.0
2015-Jul-23 21:32N 46°39' E 031°01'0 0.0
2015-Jul-23 20:32N 46°39' E 031°01'0 0.0
2015-Jul-23 19:32N 46°39' E 031°01'0 0.0
2015-Jul-23 18:32N 46°39' E 031°01'0 0.0
2015-Jul-23 17:32N 46°39' E 031°01'0 0.0
2015-Jul-23 04:05N 46°39' E 031°01'0 0.0
2015-Jul-23 03:17N 46°39' E 031°01'0 0.0
2015-Jul-23 02:29N 46°39' E 031°01'0 0.0
2015-Jul-23 01:29N 46°39' E 031°01'0 0.0
2015-Jul-23 00:32N 46°39' E 031°01'0 0.0
2015-Jul-22 23:32N 46°39' E 031°01'0 0.0
2015-Jul-22 22:32N 46°39' E 031°01'0 0.0
2015-Jul-22 21:32N 46°39' E 031°01'0 0.0
2015-Jul-22 20:26N 46°39' E 031°01'0 0.0
2015-Jul-22 19:32N 46°39' E 031°01'0 0.0
2015-Jul-22 18:29N 46°39' E 031°01'0 0.0
2015-Jul-22 17:32N 46°39' E 031°01'3 3.3
2015-Jul-22 16:33N 46°36' E 031°01'4 3.9
2015-Jul-22 15:33N 46°34' E 031°06'2 0.2
2015-Jul-22 04:22N 46°34' E 031°09'0 0.0
2015-Jul-22 00:31N 46°34' E 031°09'0 0.0
2015-Jul-21 23:31N 46°34' E 031°09'0 0.0
2015-Jul-21 22:10N 46°34' E 031°09'0 0.0
2015-Jul-21 21:31N 46°34' E 031°09'0 0.0
2015-Jul-21 03:28N 46°34' E 031°09'0 0.1
2015-Jul-21 00:31N 46°34' E 031°09'0 0.0
2015-Jul-20 23:31N 46°34' E 031°09'0 0.0
2015-Jul-20 20:10N 46°34' E 031°09'0 0.0
2015-Jul-20 19:31N 46°34' E 031°09'0 0.0
2015-Jul-20 18:31N 46°34' E 031°09'0 0.0
2015-Jul-20 17:31N 46°34' E 031°09'0 0.0
2015-Jul-20 04:28N 46°34' E 031°09'0 0.0
2015-Jul-20 03:31N 46°34' E 031°09'0 0.0
2015-Jul-20 02:31N 46°34' E 031°09'0 0.0
2015-Jul-20 01:31N 46°34' E 031°09'0 0.0
2015-Jul-20 00:31N 46°34' E 031°09'0 0.0
2015-Jul-19 23:31N 46°34' E 031°09'0 0.0
2015-Jul-19 22:31N 46°34' E 031°09'0 0.0
2015-Jul-19 21:31N 46°34' E 031°09'0 0.0
2015-Jul-19 20:31N 46°34' E 031°09'0 0.0
2015-Jul-19 19:31N 46°34' E 031°09'0 0.0
2015-Jul-19 18:31N 46°34' E 031°09'0 0.0
2015-Jul-19 17:31N 46°34' E 031°09'0 0.0
2015-Jul-18 22:20N 46°34' E 031°08'3 4.2
2015-Jul-18 21:33N 46°34' E 031°03'  

Dump ship's entire track history